createdAt,value
2019-03-12T00:04:35.151Z,7.70
2019-03-12T00:09:36.748Z,7.80
2019-03-12T00:14:38.427Z,6.67
2019-03-12T00:19:40.013Z,7.60
2019-03-12T00:24:41.581Z,6.70
2019-03-12T00:29:43.119Z,7.07
2019-03-12T00:34:44.756Z,7.27
2019-03-12T00:39:46.357Z,6.63
2019-03-12T00:44:48.058Z,7.03
2019-03-12T00:49:49.636Z,6.93
2019-03-12T00:54:51.319Z,6.70
2019-03-12T00:59:56.169Z,6.87
2019-03-12T01:04:56.367Z,6.93
2019-03-12T01:09:57.928Z,6.80
2019-03-12T01:14:59.584Z,7.23
2019-03-12T01:20:01.258Z,6.67
2019-03-12T01:25:05.285Z,7.33
2019-03-12T01:30:09.231Z,7.10
2019-03-12T01:35:11.033Z,6.50
2019-03-12T01:40:12.868Z,7.60
2019-03-12T01:45:14.533Z,7.50
2019-03-12T01:50:16.196Z,7.10
2019-03-12T01:55:17.762Z,6.73
2019-03-12T02:00:19.644Z,7.10
2019-03-12T02:05:21.306Z,6.10
2019-03-12T02:10:22.887Z,6.20
2019-03-12T02:15:24.460Z,6.53
2019-03-12T02:20:26.017Z,5.97
2019-03-12T02:25:27.587Z,6.27
2019-03-12T02:30:29.378Z,6.07
2019-03-12T02:35:31.050Z,5.97
2019-03-12T02:40:32.607Z,6.10
2019-03-12T02:45:34.285Z,5.57
2019-03-12T02:50:35.885Z,6.53
2019-03-12T02:55:37.418Z,5.73
2019-03-12T03:00:38.981Z,5.77
2019-03-12T03:05:59.033Z,6.63
2019-03-12T03:11:00.580Z,5.20
2019-03-12T03:16:02.245Z,6.83
2019-03-12T03:21:03.966Z,6.30
2019-03-12T03:26:05.545Z,5.93
2019-03-12T03:31:07.120Z,6.07
2019-03-12T03:36:08.877Z,6.67
2019-03-12T03:41:10.442Z,5.47
2019-03-12T03:46:11.990Z,5.60
2019-03-12T03:51:13.719Z,6.07
2019-03-12T03:56:15.508Z,5.90
2019-03-12T04:01:17.078Z,6.00
2019-03-12T04:06:18.871Z,6.27
2019-03-12T04:11:20.423Z,6.30
2019-03-12T04:16:22.114Z,6.20
2019-03-12T04:21:23.677Z,6.63
2019-03-12T04:26:25.259Z,5.87
2019-03-12T04:31:26.940Z,5.90
2019-03-12T04:36:28.506Z,6.97
2019-03-12T04:41:30.072Z,5.13
2019-03-12T04:46:31.755Z,4.47
2019-03-12T04:51:33.676Z,3.97
2019-03-12T04:56:35.347Z,4.17
2019-03-12T05:01:36.938Z,3.53
2019-03-12T05:06:38.503Z,3.30
2019-03-12T05:11:40.199Z,3.20
2019-03-12T05:16:41.875Z,3.77
2019-03-12T05:21:45.000Z,3.03
2019-03-12T05:26:46.819Z,3.00
2019-03-12T05:31:48.419Z,3.53
2019-03-12T05:36:49.983Z,2.90
2019-03-12T05:41:51.533Z,2.23
2019-03-12T05:46:53.083Z,2.50
2019-03-12T05:51:54.663Z,2.47
2019-03-12T05:56:56.331Z,2.40
2019-03-12T06:01:58.020Z,2.20
2019-03-12T06:06:59.730Z,2.20
2019-03-12T06:12:01.392Z,2.10
2019-03-12T06:17:03.065Z,2.13
2019-03-12T06:22:04.709Z,1.77
2019-03-12T06:27:06.312Z,1.90
2019-03-12T06:32:26.056Z,2.57
2019-03-12T06:37:51.811Z,2.43
2019-03-12T06:43:06.820Z,2.00
2019-03-12T06:48:28.053Z,2.10
2019-03-12T06:53:44.447Z,2.17
2019-03-12T06:59:06.059Z,2.50
2019-03-12T07:04:17.295Z,2.20
2019-03-12T07:09:37.175Z,2.00
2019-03-12T07:14:45.002Z,1.87
2019-03-12T07:19:55.803Z,1.87
2019-03-12T07:25:11.192Z,1.77
2019-03-12T07:30:31.443Z,2.00
2019-03-12T07:35:43.301Z,1.57
2019-03-12T07:41:24.865Z,1.43
2019-03-12T07:46:31.813Z,1.60
2019-03-12T07:51:43.888Z,1.57
2019-03-12T07:57:04.256Z,1.77
2019-03-12T08:02:25.735Z,1.60
2019-03-12T08:07:39.817Z,1.60
2019-03-12T08:12:59.788Z,1.43
2019-03-12T08:18:24.434Z,1.53
2019-03-12T08:23:33.543Z,1.60
2019-03-12T08:29:06.748Z,2.10
2019-03-12T08:34:27.949Z,1.50
2019-03-12T08:39:48.344Z,1.70
2019-03-12T08:45:15.450Z,1.50
2019-03-12T08:50:21.365Z,1.47
2019-03-12T08:55:42.874Z,1.90
2019-03-12T09:01:00.662Z,1.47
2019-03-12T09:06:27.765Z,1.87
2019-03-12T09:12:01.053Z,1.67
2019-03-12T09:17:20.908Z,1.40
2019-03-12T09:22:48.383Z,1.93
2019-03-12T09:28:19.767Z,1.80
2019-03-12T09:33:35.395Z,1.53
2019-03-12T09:38:44.452Z,1.17
2019-03-12T09:44:05.703Z,1.20
2019-03-12T09:49:15.944Z,1.30
2019-03-12T09:54:43.003Z,1.40
2019-03-12T10:00:15.304Z,1.63
2019-03-12T10:05:24.363Z,1.37
2019-03-12T10:10:33.296Z,1.90
2019-03-12T10:15:53.392Z,1.60
2019-03-12T10:21:17.194Z,1.90
2019-03-12T10:26:37.115Z,1.33
2019-03-12T10:31:49.196Z,1.20
2019-03-12T10:37:11.866Z,1.70
2019-03-12T10:42:17.647Z,1.20
2019-03-12T10:47:21.190Z,1.03
2019-03-12T10:52:22.961Z,1.27
2019-03-12T10:57:24.578Z,1.23
2019-03-12T11:02:26.146Z,1.53
2019-03-12T11:07:27.701Z,1.53
2019-03-12T11:12:29.309Z,0.80
2019-03-12T11:17:30.997Z,1.20
2019-03-12T11:22:32.669Z,1.07
2019-03-12T11:27:34.396Z,0.97
2019-03-12T11:32:36.063Z,1.10
2019-03-12T11:37:37.859Z,1.30
2019-03-12T11:42:39.479Z,0.97
2019-03-12T11:47:41.076Z,0.83
2019-03-12T11:52:52.614Z,1.25
2019-03-12T11:57:46.353Z,1.12
2019-03-12T12:02:59.263Z,1.60
2019-03-12T12:07:51.770Z,1.15
2019-03-12T12:12:53.718Z,1.10
2019-03-12T12:17:55.300Z,1.40
2019-03-12T12:22:56.992Z,0.93
2019-03-12T12:27:58.773Z,1.10
2019-03-12T12:33:00.502Z,1.10
2019-03-12T12:38:02.248Z,1.10
2019-03-12T12:43:03.988Z,1.07
2019-03-12T12:48:05.672Z,1.17
2019-03-12T12:53:07.239Z,1.07
2019-03-12T12:58:08.807Z,1.20
2019-03-12T13:03:10.492Z,1.40
2019-03-12T13:08:12.222Z,1.10
2019-03-12T13:13:13.894Z,1.27
2019-03-12T13:18:16.710Z,1.20
2019-03-12T13:23:18.648Z,1.30
2019-03-12T13:28:20.248Z,1.70
2019-03-12T13:33:21.914Z,1.17
2019-03-12T13:38:23.588Z,1.70
2019-03-12T13:43:25.201Z,1.50
2019-03-12T13:48:26.978Z,1.62
2019-03-12T13:53:28.679Z,1.90
2019-03-12T13:58:30.285Z,1.30
2019-03-12T14:03:31.877Z,1.62
2019-03-12T14:08:33.593Z,1.57
2019-03-12T14:13:35.341Z,1.37
2019-03-12T14:18:37.143Z,1.90
2019-03-12T14:24:02.422Z,1.40
2019-03-12T14:29:04.108Z,1.83
2019-03-12T14:34:05.786Z,2.03
2019-03-12T14:39:07.760Z,1.40
2019-03-12T14:44:09.363Z,1.57
2019-03-12T14:49:11.013Z,1.50
2019-03-12T14:54:12.714Z,1.20
2019-03-12T14:59:14.270Z,1.53
2019-03-12T15:04:15.922Z,1.20
2019-03-12T15:09:17.578Z,1.60
2019-03-12T15:14:19.142Z,1.20
2019-03-12T15:19:20.727Z,1.23
2019-03-12T15:24:22.309Z,1.67
2019-03-12T15:29:23.981Z,1.20
2019-03-12T15:34:25.602Z,1.33
2019-03-12T15:39:27.186Z,1.23
2019-03-12T15:44:28.775Z,1.17
2019-03-12T15:49:30.343Z,1.40
2019-03-12T15:54:31.903Z,1.27
2019-03-12T15:59:33.588Z,1.07
2019-03-12T16:04:35.365Z,1.20
2019-03-12T16:09:36.973Z,1.27
2019-03-12T16:14:38.538Z,1.37
2019-03-12T16:19:40.385Z,1.33
2019-03-12T16:24:42.137Z,1.50
2019-03-12T16:29:43.837Z,1.10
2019-03-12T16:34:45.388Z,0.90
2019-03-12T16:39:46.953Z,1.73
2019-03-12T16:44:48.607Z,1.50
2019-03-12T16:49:50.775Z,1.20
2019-03-12T16:54:52.365Z,1.53
2019-03-12T16:59:53.995Z,1.20
2019-03-12T17:04:55.739Z,1.57
2019-03-12T17:09:57.536Z,1.00
2019-03-12T17:14:59.169Z,0.93
2019-03-12T17:20:00.885Z,1.33
2019-03-12T17:25:03.288Z,1.30
2019-03-12T17:30:07.732Z,1.00
2019-03-12T17:35:13.429Z,1.03
2019-03-12T17:40:17.002Z,1.60
2019-03-12T17:45:18.810Z,2.00
2019-03-12T17:50:21.811Z,1.97
2019-03-12T17:55:23.551Z,1.90
2019-03-12T18:00:28.271Z,1.63
2019-03-12T18:05:30.194Z,1.80
2019-03-12T18:10:31.976Z,1.43
2019-03-12T18:15:33.706Z,1.87
2019-03-12T18:20:35.278Z,1.60
2019-03-12T18:25:36.878Z,1.70
2019-03-12T18:30:38.701Z,1.40
2019-03-12T18:35:40.357Z,2.50
2019-03-12T18:40:42.102Z,1.50
2019-03-12T18:45:43.711Z,1.20
2019-03-12T18:50:45.279Z,1.40
2019-03-12T18:56:01.763Z,1.60
2019-03-12T19:01:06.746Z,1.33
2019-03-12T19:06:10.079Z,1.43
2019-03-12T19:11:11.956Z,1.53
2019-03-12T19:16:13.718Z,0.93
2019-03-12T19:21:15.297Z,1.30
2019-03-12T19:26:16.975Z,1.10
2019-03-12T19:31:50.558Z,1.57
2019-03-12T19:36:52.164Z,1.00
2019-03-12T19:41:54.570Z,1.00
2019-03-12T19:46:56.284Z,2.37
2019-03-12T19:51:57.974Z,1.20
2019-03-12T19:56:59.664Z,1.10
2019-03-12T20:02:02.487Z,0.90
2019-03-12T20:07:06.722Z,0.90
2019-03-12T20:12:56.581Z,1.17
2019-03-12T20:18:46.776Z,0.90
2019-03-12T20:24:35.969Z,1.00
2019-03-12T20:30:25.430Z,0.90
2019-03-12T20:36:24.761Z,0.93
2019-03-12T20:42:03.052Z,1.20
2019-03-12T20:47:34.353Z,0.80
2019-03-12T20:53:23.094Z,0.90
2019-03-12T20:59:05.472Z,0.70
2019-03-12T21:05:00.468Z,0.80
2019-03-12T21:10:34.904Z,0.90
2019-03-12T21:16:04.312Z,0.77
2019-03-12T21:21:44.098Z,0.60
2019-03-12T21:26:59.242Z,0.97
2019-03-12T21:32:00.900Z,0.67
2019-03-12T21:37:02.666Z,1.10
2019-03-12T21:42:05.171Z,0.83
2019-03-12T21:47:06.915Z,0.70
2019-03-12T21:52:08.682Z,0.90
2019-03-12T21:57:10.616Z,0.70
2019-03-12T22:02:12.352Z,0.90
2019-03-12T22:07:13.993Z,0.70
2019-03-12T22:12:15.792Z,0.50
2019-03-12T22:17:17.388Z,0.70
2019-03-12T22:22:30.081Z,0.70
2019-03-12T22:27:31.797Z,0.70
2019-03-12T22:32:33.380Z,0.60
2019-03-12T22:37:35.056Z,0.70
2019-03-12T22:42:36.716Z,0.80
2019-03-12T22:47:38.526Z,0.60
2019-03-12T22:52:40.200Z,0.70
2019-03-12T22:57:41.952Z,0.90
2019-03-12T23:02:43.580Z,0.60
2019-03-12T23:07:45.295Z,0.80
2019-03-12T23:12:47.245Z,0.50
2019-03-12T23:17:48.914Z,0.90
2019-03-12T23:22:52.339Z,1.07
2019-03-12T23:27:54.470Z,0.80
2019-03-12T23:32:56.174Z,0.70
2019-03-12T23:37:57.781Z,0.80
2019-03-12T23:42:59.476Z,0.80
2019-03-12T23:48:01.176Z,0.87
2019-03-12T23:53:03.166Z,0.87
2019-03-12T23:58:04.868Z,0.70
